createdAt,value
2022-11-17T00:02:18.551Z,2.20
2022-11-17T00:04:45.430Z,2.78
2022-11-17T00:07:12.060Z,2.60
2022-11-17T00:09:39.093Z,2.40
2022-11-17T00:15:11.324Z,2.63
2022-11-17T00:17:37.908Z,2.40
2022-11-17T00:20:23.563Z,2.40
2022-11-17T00:22:50.212Z,2.50
2022-11-17T00:25:17.935Z,2.50
2022-11-17T00:27:44.441Z,2.67
2022-11-17T00:30:31.240Z,2.17
2022-11-17T00:33:20.515Z,2.22
2022-11-17T00:35:54.043Z,2.03
2022-11-17T00:38:20.802Z,2.63
2022-11-17T00:40:47.440Z,3.33
2022-11-17T00:43:14.043Z,2.90
2022-11-17T00:45:40.761Z,2.63
2022-11-17T00:48:07.286Z,3.10
2022-11-17T00:50:33.789Z,2.30
2022-11-17T00:53:00.376Z,2.33
2022-11-17T00:55:27.008Z,2.28
2022-11-17T00:57:53.588Z,2.45
2022-11-17T01:00:21.376Z,2.78
2022-11-17T01:02:47.912Z,2.90
2022-11-17T01:05:14.536Z,3.38
2022-11-17T01:07:41.123Z,2.75
2022-11-17T01:10:09.268Z,2.28
2022-11-17T01:12:35.800Z,2.30
2022-11-17T01:15:02.320Z,3.13
2022-11-17T01:17:29.023Z,2.22
2022-11-17T01:19:55.551Z,2.45
2022-11-17T01:22:22.294Z,2.40
2022-11-17T01:24:48.883Z,2.38
2022-11-17T01:27:15.588Z,2.70
2022-11-17T01:29:42.094Z,2.50
2022-11-17T01:32:08.679Z,2.75
2022-11-17T01:34:35.202Z,2.33
2022-11-17T01:37:19.936Z,2.55
2022-11-17T01:39:47.894Z,2.40
2022-11-17T01:42:23.152Z,2.75
2022-11-17T01:45:00.254Z,2.53
2022-11-17T01:47:39.686Z,3.33
2022-11-17T01:50:28.069Z,2.30
2022-11-17T01:52:59.748Z,2.35
2022-11-17T01:55:36.078Z,2.95
2022-11-17T01:58:43.823Z,2.80
2022-11-17T02:01:10.405Z,2.70
2022-11-17T02:03:39.861Z,3.05
2022-11-17T02:06:22.131Z,2.60
2022-11-17T02:08:51.578Z,2.78
2022-11-17T02:11:20.198Z,2.90
2022-11-17T02:13:48.022Z,2.45
2022-11-17T02:16:25.058Z,3.20
2022-11-17T02:18:51.665Z,3.05
2022-11-17T02:21:39.349Z,3.50
2022-11-17T02:24:08.844Z,2.83
2022-11-17T02:27:08.121Z,2.80
2022-11-17T02:30:00.868Z,2.83
2022-11-17T02:33:03.578Z,3.47
2022-11-17T02:35:49.679Z,3.17
2022-11-17T02:38:50.007Z,2.60
2022-11-17T02:41:27.191Z,3.70
2022-11-17T02:44:31.502Z,3.70
2022-11-17T02:47:12.734Z,3.58
2022-11-17T02:49:44.853Z,3.35
2022-11-17T02:52:12.429Z,3.45
2022-11-17T02:54:39.066Z,3.55
2022-11-17T02:57:05.599Z,3.85
2022-11-17T02:59:39.268Z,3.80
2022-11-17T03:02:25.653Z,3.65
2022-11-17T03:05:01.413Z,3.53
2022-11-17T03:07:58.658Z,3.50
2022-11-17T03:10:40.353Z,3.05
2022-11-17T03:13:06.804Z,4.45
2022-11-17T03:15:54.095Z,4.18
2022-11-17T03:21:20.401Z,3.90
2022-11-17T03:23:55.340Z,4.05
2022-11-17T03:26:27.582Z,4.28
2022-11-17T03:28:57.041Z,4.00
2022-11-17T03:31:26.128Z,3.80
2022-11-17T03:33:54.444Z,4.43
2022-11-17T03:36:28.222Z,3.90
2022-11-17T03:39:42.319Z,3.88
2022-11-17T03:42:19.236Z,3.85
2022-11-17T03:44:51.040Z,3.78
2022-11-17T03:47:20.204Z,4.10
2022-11-17T03:49:57.590Z,4.20
2022-11-17T03:52:25.323Z,4.80
2022-11-17T03:54:53.165Z,3.90
2022-11-17T03:57:31.890Z,4.03
2022-11-17T04:00:06.163Z,4.10
2022-11-17T04:02:33.125Z,4.85
2022-11-17T04:05:05.903Z,4.50
2022-11-17T04:07:36.712Z,4.50
2022-11-17T04:10:04.889Z,4.30
2022-11-17T04:12:50.329Z,4.47
2022-11-17T04:15:35.716Z,4.50
2022-11-17T04:18:03.716Z,4.78
2022-11-17T04:20:39.167Z,4.95
2022-11-17T04:23:14.397Z,4.30
2022-11-17T04:26:08.308Z,5.03
2022-11-17T04:28:37.490Z,4.20
2022-11-17T04:31:04.877Z,3.70
2022-11-17T04:33:31.919Z,4.35
2022-11-17T04:36:00.388Z,4.22
2022-11-17T04:38:26.999Z,4.85
2022-11-17T04:41:12.228Z,4.45
2022-11-17T04:43:39.235Z,4.25
2022-11-17T04:46:05.953Z,4.72
2022-11-17T04:48:32.775Z,4.30
2022-11-17T04:50:59.563Z,4.53
2022-11-17T04:53:26.210Z,4.70
2022-11-17T04:55:52.786Z,4.30
2022-11-17T04:58:19.329Z,4.32
2022-11-17T05:00:45.989Z,4.38
2022-11-17T05:03:12.725Z,4.63
2022-11-17T05:05:40.413Z,4.43
2022-11-17T05:08:07.018Z,4.70
2022-11-17T05:10:52.273Z,4.70
2022-11-17T05:13:27.813Z,4.72
2022-11-17T05:16:15.025Z,4.15
2022-11-17T05:18:43.409Z,5.32
2022-11-17T05:21:11.346Z,3.95
2022-11-17T05:23:53.987Z,4.20
2022-11-17T05:26:29.457Z,5.05
2022-11-17T05:28:58.085Z,4.70
2022-11-17T05:31:25.747Z,4.35
2022-11-17T05:33:54.213Z,4.43
2022-11-17T05:36:21.741Z,4.55
2022-11-17T05:38:48.891Z,4.70
2022-11-17T05:41:16.618Z,4.55
2022-11-17T05:43:43.950Z,4.45
2022-11-17T05:46:11.048Z,4.15
2022-11-17T05:48:40.353Z,4.45
2022-11-17T05:51:07.237Z,4.57
2022-11-17T05:53:34.314Z,4.63
2022-11-17T05:56:38.606Z,4.50
2022-11-17T05:59:16.968Z,4.68
2022-11-17T06:02:01.239Z,4.35
2022-11-17T06:04:28.903Z,4.18
2022-11-17T06:06:59.489Z,4.05
2022-11-17T06:09:32.931Z,3.88
2022-11-17T06:12:05.321Z,4.85
2022-11-17T06:14:32.653Z,3.80
2022-11-17T06:17:05.896Z,4.13
2022-11-17T06:19:39.914Z,4.05
2022-11-17T06:22:14.307Z,4.93
2022-11-17T06:24:43.391Z,4.40
2022-11-17T06:27:12.551Z,4.15
2022-11-17T06:29:43.841Z,4.20
2022-11-17T06:32:14.661Z,4.18
2022-11-17T06:34:44.342Z,3.97
2022-11-17T06:37:11.769Z,4.13
2022-11-17T06:39:38.546Z,4.28
2022-11-17T06:42:05.146Z,4.95
2022-11-17T06:44:31.728Z,4.28
2022-11-17T06:46:58.422Z,3.67
2022-11-17T06:49:25.056Z,4.45
2022-11-17T06:51:52.267Z,4.63
2022-11-17T06:54:18.839Z,4.25
2022-11-17T06:56:45.609Z,4.45
2022-11-17T06:59:12.294Z,4.40
2022-11-17T07:01:38.936Z,4.72
2022-11-17T07:04:05.845Z,4.82
2022-11-17T07:06:36.915Z,4.97
2022-11-17T07:09:05.079Z,4.65
2022-11-17T07:11:36.079Z,4.30
2022-11-17T07:14:03.681Z,4.43
2022-11-17T07:16:31.096Z,4.60
2022-11-17T07:18:59.352Z,4.85
2022-11-17T07:21:26.478Z,5.32
2022-11-17T07:23:53.062Z,5.25
2022-11-17T07:26:19.851Z,4.85
2022-11-17T07:28:46.463Z,4.82
2022-11-17T07:31:13.025Z,5.63
2022-11-17T07:33:39.809Z,4.88
2022-11-17T07:36:09.804Z,4.68
2022-11-17T07:38:38.360Z,4.65
2022-11-17T07:41:07.911Z,4.63
2022-11-17T07:43:35.200Z,4.45
2022-11-17T07:46:11.150Z,4.90
2022-11-17T07:48:38.315Z,4.82
2022-11-17T07:51:05.939Z,4.55
2022-11-17T07:53:35.134Z,4.93
2022-11-17T07:56:09.401Z,4.60
2022-11-17T07:58:37.080Z,5.15
2022-11-17T08:01:08.860Z,4.13
2022-11-17T08:03:35.598Z,3.70
2022-11-17T08:06:06.761Z,3.97
2022-11-17T08:08:34.507Z,4.07
2022-11-17T08:11:06.164Z,4.10
2022-11-17T08:13:33.505Z,3.35
2022-11-17T08:16:00.375Z,3.90
2022-11-17T08:18:28.047Z,4.10
2022-11-17T08:21:14.651Z,4.05
2022-11-17T08:23:43.495Z,4.03
2022-11-17T08:26:11.882Z,3.65
2022-11-17T08:28:39.186Z,3.60
2022-11-17T08:31:07.867Z,3.55
2022-11-17T08:33:34.812Z,3.25
2022-11-17T08:36:02.661Z,3.85
2022-11-17T08:38:30.384Z,3.55
2022-11-17T08:40:58.368Z,3.38
2022-11-17T08:43:26.021Z,2.97
2022-11-17T08:45:52.642Z,3.15
2022-11-17T08:48:19.344Z,2.47
2022-11-17T08:50:48.105Z,2.65
2022-11-17T08:53:16.866Z,3.08
2022-11-17T08:55:43.779Z,2.60
2022-11-17T08:58:12.300Z,2.50
2022-11-17T09:00:39.792Z,1.98
2022-11-17T09:03:07.783Z,1.85
2022-11-17T09:05:38.924Z,2.10
2022-11-17T09:08:22.855Z,2.15
2022-11-17T09:10:52.487Z,2.00
2022-11-17T09:13:19.038Z,2.25
2022-11-17T09:15:45.922Z,1.55
2022-11-17T09:18:12.611Z,1.70
2022-11-17T09:20:45.310Z,1.65
2022-11-17T09:23:12.426Z,1.55
2022-11-17T09:25:40.005Z,1.48
2022-11-17T09:28:06.764Z,1.67
2022-11-17T09:30:33.407Z,2.00
2022-11-17T09:33:00.020Z,1.70
2022-11-17T09:35:26.717Z,1.75
2022-11-17T09:37:53.282Z,1.60
2022-11-17T09:40:21.058Z,1.70
2022-11-17T09:42:47.635Z,1.50
2022-11-17T09:45:27.200Z,1.45
2022-11-17T09:48:38.996Z,1.58
2022-11-17T09:50:57.794Z,1.58
2022-11-17T09:53:29.843Z,1.73
2022-11-17T09:56:02.219Z,1.80
2022-11-17T09:58:39.807Z,2.38
2022-11-17T10:01:10.898Z,1.20
2022-11-17T10:03:43.890Z,1.23
2022-11-17T10:06:24.569Z,1.23
2022-11-17T10:09:25.645Z,1.30
2022-11-17T10:11:54.600Z,1.40
2022-11-17T10:14:22.620Z,1.65
2022-11-17T10:16:55.305Z,1.30
2022-11-17T10:19:26.669Z,1.50
2022-11-17T10:21:57.726Z,1.25
2022-11-17T10:24:34.688Z,1.10
2022-11-17T10:27:03.800Z,1.58
2022-11-17T10:29:30.504Z,1.48
2022-11-17T10:31:58.137Z,1.30
2022-11-17T10:34:40.974Z,0.90
2022-11-17T10:37:14.306Z,1.10
2022-11-17T10:39:43.207Z,0.88
2022-11-17T10:42:18.758Z,0.77
2022-11-17T10:44:51.382Z,1.30
2022-11-17T10:47:39.580Z,0.80
2022-11-17T10:50:12.370Z,0.80
2022-11-17T10:52:39.079Z,1.00
2022-11-17T10:55:26.444Z,0.80
2022-11-17T10:58:02.653Z,0.50
2022-11-17T11:00:37.397Z,0.80
2022-11-17T11:03:23.270Z,1.20
2022-11-17T11:06:17.692Z,1.02
2022-11-17T11:08:57.352Z,1.25
2022-11-17T11:11:52.058Z,0.95
2022-11-17T11:14:25.103Z,0.82
2022-11-17T11:16:52.285Z,1.08
2022-11-17T11:19:20.169Z,0.90
2022-11-17T11:22:22.324Z,0.70
2022-11-17T11:25:17.891Z,0.77
2022-11-17T11:28:04.204Z,0.98
2022-11-17T11:30:38.740Z,0.57
2022-11-17T11:33:43.162Z,1.20
2022-11-17T11:36:27.620Z,0.93
2022-11-17T11:38:54.206Z,1.02
2022-11-17T11:41:42.733Z,1.02
2022-11-17T11:44:39.882Z,0.90
2022-11-17T11:47:28.152Z,0.82
2022-11-17T11:50:02.522Z,1.13
2022-11-17T11:52:36.536Z,1.30
2022-11-17T11:55:23.805Z,1.10
2022-11-17T12:00:35.992Z,1.20
2022-11-17T12:03:15.057Z,1.50
2022-11-17T12:05:44.786Z,1.33
2022-11-17T12:08:25.622Z,1.10
2022-11-17T12:11:29.895Z,1.20
2022-11-17T12:13:58.483Z,0.80
2022-11-17T12:16:31.972Z,1.10
2022-11-17T12:18:58.604Z,1.02
2022-11-17T12:21:27.529Z,1.30
2022-11-17T12:24:18.805Z,1.40
2022-11-17T12:26:45.724Z,1.50
2022-11-17T12:29:21.425Z,1.33
2022-11-17T12:32:10.108Z,0.90
2022-11-17T12:34:37.333Z,0.90
2022-11-17T12:37:15.579Z,0.90
2022-11-17T12:40:11.319Z,0.90
2022-11-17T12:43:15.878Z,0.80
2022-11-17T12:46:24.735Z,0.50
2022-11-17T12:49:03.436Z,0.73
2022-11-17T12:51:38.954Z,0.90
2022-11-17T12:54:21.882Z,0.60
2022-11-17T12:57:05.673Z,0.80
2022-11-17T13:00:07.700Z,0.85
2022-11-17T13:02:46.864Z,0.77
2022-11-17T13:05:21.895Z,0.90
2022-11-17T13:07:48.819Z,0.98
2022-11-17T13:10:30.401Z,1.35
2022-11-17T13:13:23.607Z,1.00
2022-11-17T13:15:58.825Z,0.98
2022-11-17T13:18:41.532Z,0.70
2022-11-17T13:21:26.446Z,1.00
2022-11-17T13:23:53.641Z,0.90
2022-11-17T13:26:26.325Z,0.80
2022-11-17T13:29:26.389Z,0.90
2022-11-17T13:32:23.159Z,1.15
2022-11-17T13:35:02.062Z,0.40
2022-11-17T13:37:30.350Z,0.68
2022-11-17T13:39:58.522Z,1.00
2022-11-17T13:42:27.905Z,0.57
2022-11-17T13:44:57.251Z,1.00
2022-11-17T13:47:41.563Z,1.23
2022-11-17T13:50:26.320Z,1.00
2022-11-17T13:52:55.728Z,0.55
2022-11-17T13:55:24.184Z,0.95
2022-11-17T13:58:04.836Z,0.90
2022-11-17T14:00:32.827Z,0.77
2022-11-17T14:03:05.799Z,1.15
2022-11-17T14:05:33.890Z,0.63
2022-11-17T14:08:27.410Z,0.90
2022-11-17T14:11:12.332Z,0.70
2022-11-17T14:13:48.021Z,0.85
2022-11-17T14:16:22.882Z,0.90
2022-11-17T14:19:15.794Z,0.80
2022-11-17T14:22:29.227Z,1.10
2022-11-17T14:24:57.902Z,1.27
2022-11-17T14:27:27.906Z,1.13
2022-11-17T14:29:55.269Z,1.00
2022-11-17T14:32:22.013Z,0.50
2022-11-17T14:34:49.906Z,0.77
2022-11-17T14:37:26.127Z,0.70
2022-11-17T14:39:54.806Z,1.15
2022-11-17T14:42:22.895Z,0.63
2022-11-17T14:44:52.520Z,0.80
2022-11-17T14:47:24.990Z,0.80
2022-11-17T14:49:54.569Z,0.88
2022-11-17T14:52:23.508Z,0.82
2022-11-17T14:54:50.847Z,0.75
2022-11-17T14:57:18.753Z,1.05
2022-11-17T14:59:47.893Z,0.70
2022-11-17T15:02:15.130Z,0.95
2022-11-17T15:04:50.477Z,0.70
2022-11-17T15:09:45.945Z,0.70
2022-11-17T15:12:14.071Z,1.10
2022-11-17T15:14:40.699Z,0.90
2022-11-17T15:17:13.863Z,1.30
2022-11-17T15:19:41.580Z,1.05
2022-11-17T15:22:09.244Z,0.90
2022-11-17T15:24:35.915Z,0.90
2022-11-17T15:27:03.624Z,0.90
2022-11-17T15:29:30.251Z,1.10
2022-11-17T15:31:57.000Z,1.20
2022-11-17T15:34:23.587Z,1.23
2022-11-17T15:36:50.278Z,1.15
2022-11-17T15:39:17.631Z,1.20
2022-11-17T15:41:45.352Z,1.20
2022-11-17T15:44:11.983Z,1.10
2022-11-17T15:46:42.887Z,1.20
2022-11-17T15:49:12.827Z,1.10
2022-11-17T15:51:39.755Z,1.08
2022-11-17T15:54:06.485Z,1.40
2022-11-17T15:56:37.029Z,1.48
2022-11-17T15:59:05.403Z,1.60
2022-11-17T16:01:35.391Z,1.30
2022-11-17T16:04:04.827Z,1.58
2022-11-17T16:06:33.101Z,1.27
2022-11-17T16:08:59.946Z,1.38
2022-11-17T16:11:27.652Z,1.40
2022-11-17T16:13:55.965Z,1.15
2022-11-17T16:16:24.365Z,1.40
2022-11-17T16:18:51.350Z,1.10
2022-11-17T16:21:18.051Z,1.42
2022-11-17T16:23:49.894Z,1.20
2022-11-17T16:26:18.166Z,1.77
2022-11-17T16:28:49.041Z,1.35
2022-11-17T16:31:19.633Z,1.52
2022-11-17T16:33:50.067Z,1.50
2022-11-17T16:36:18.163Z,1.33
2022-11-17T16:38:59.835Z,1.33
2022-11-17T16:41:31.266Z,1.55
2022-11-17T16:43:58.208Z,1.42
2022-11-17T16:46:28.755Z,1.10
2022-11-17T16:48:56.324Z,1.48
2022-11-17T16:51:22.895Z,1.88
2022-11-17T16:53:56.722Z,1.23
2022-11-17T16:56:23.306Z,1.40
2022-11-17T16:58:50.768Z,1.80
2022-11-17T17:01:22.663Z,1.30
2022-11-17T17:03:49.544Z,1.20
2022-11-17T17:06:18.675Z,1.30
2022-11-17T17:08:45.538Z,1.40
2022-11-17T17:11:15.919Z,1.90
2022-11-17T17:13:43.660Z,1.45
2022-11-17T17:16:16.010Z,1.50
2022-11-17T17:18:43.087Z,1.20
2022-11-17T17:21:15.561Z,1.05
2022-11-17T17:23:42.884Z,1.50
2022-11-17T17:26:16.861Z,1.50
2022-11-17T17:28:44.825Z,1.60
2022-11-17T17:31:19.653Z,1.35
2022-11-17T17:33:50.544Z,2.03
2022-11-17T17:36:22.361Z,1.70
2022-11-17T17:38:55.024Z,1.70
2022-11-17T17:41:27.015Z,1.65
2022-11-17T17:43:56.906Z,2.13
2022-11-17T17:46:25.419Z,1.50
2022-11-17T17:48:53.487Z,1.38
2022-11-17T17:51:23.902Z,1.67
2022-11-17T17:53:51.436Z,1.88
2022-11-17T17:56:20.179Z,1.80
2022-11-17T17:58:49.002Z,1.90
2022-11-17T18:01:25.754Z,1.88
2022-11-17T18:06:22.074Z,1.63
2022-11-17T18:08:49.530Z,1.90
2022-11-17T18:11:18.400Z,1.73
2022-11-17T18:13:48.823Z,2.00
2022-11-17T18:16:27.160Z,2.00
2022-11-17T18:19:02.568Z,1.77
2022-11-17T18:21:30.345Z,1.67
2022-11-17T18:23:58.406Z,1.80
2022-11-17T18:26:30.392Z,1.80
2022-11-17T18:29:12.305Z,1.80
2022-11-17T18:31:39.229Z,2.10
2022-11-17T18:34:08.783Z,1.95
2022-11-17T18:36:35.794Z,1.52
2022-11-17T18:39:03.576Z,1.88
2022-11-17T18:41:32.706Z,1.90
2022-11-17T18:44:00.722Z,2.00
2022-11-17T18:46:30.060Z,1.40
2022-11-17T18:48:57.672Z,1.95
2022-11-17T18:51:26.568Z,2.15
2022-11-17T18:53:55.105Z,1.60
2022-11-17T18:56:25.016Z,1.77
2022-11-17T18:58:53.154Z,2.08
2022-11-17T19:01:25.404Z,2.40
2022-11-17T19:03:54.006Z,1.92
2022-11-17T19:06:23.520Z,2.00
2022-11-17T19:08:51.001Z,1.73
2022-11-17T19:11:19.815Z,1.85
2022-11-17T19:13:47.306Z,1.98
2022-11-17T19:16:25.484Z,2.33
2022-11-17T19:18:55.153Z,2.13
2022-11-17T19:21:26.947Z,2.30
2022-11-17T19:23:55.457Z,2.10
2022-11-17T19:26:27.505Z,1.92
2022-11-17T19:28:59.606Z,2.28
2022-11-17T19:31:27.120Z,2.35
2022-11-17T19:33:55.132Z,2.20
2022-11-17T19:36:33.276Z,2.50
2022-11-17T19:39:02.745Z,2.22
2022-11-17T19:41:37.807Z,2.85
2022-11-17T19:44:08.403Z,2.67
2022-11-17T19:46:36.396Z,2.42
2022-11-17T19:49:04.579Z,2.50
2022-11-17T19:51:33.356Z,2.30
2022-11-17T19:54:05.819Z,2.47
2022-11-17T19:56:33.624Z,2.72
2022-11-17T19:59:00.526Z,2.67
2022-11-17T20:01:29.370Z,2.85
2022-11-17T20:03:57.404Z,2.55
2022-11-17T20:06:29.717Z,2.58
2022-11-17T20:08:57.627Z,2.40
2022-11-17T20:11:28.917Z,2.58
2022-11-17T20:13:56.306Z,2.70
2022-11-17T20:16:27.386Z,2.55
2022-11-17T20:18:59.404Z,2.05
2022-11-17T20:21:27.676Z,2.58
2022-11-17T20:23:55.378Z,2.97
2022-11-17T20:26:24.651Z,2.20
2022-11-17T20:28:52.393Z,2.17
2022-11-17T20:31:22.672Z,2.00
2022-11-17T20:33:49.293Z,2.90
2022-11-17T20:36:18.802Z,2.33
2022-11-17T20:38:45.839Z,2.42
2022-11-17T20:41:12.501Z,2.40
2022-11-17T20:43:39.285Z,2.20
2022-11-17T20:46:06.347Z,2.40
2022-11-17T20:48:35.374Z,2.08
2022-11-17T20:51:07.854Z,2.20
2022-11-17T20:53:34.633Z,2.13
2022-11-17T20:56:03.287Z,2.05
2022-11-17T20:58:30.703Z,2.13
2022-11-17T21:00:57.555Z,2.35
2022-11-17T21:03:26.734Z,2.67
2022-11-17T21:05:59.257Z,3.72
2022-11-17T21:08:27.893Z,2.00
2022-11-17T21:10:59.949Z,2.40
2022-11-17T21:13:27.809Z,2.10
2022-11-17T21:16:08.253Z,2.33
2022-11-17T21:18:36.069Z,2.15
2022-11-17T21:21:08.563Z,1.95
2022-11-17T21:23:37.214Z,1.90
2022-11-17T21:26:17.114Z,2.28
2022-11-17T21:28:44.020Z,2.30
2022-11-17T21:31:17.453Z,2.20
2022-11-17T21:33:45.149Z,2.42
2022-11-17T21:36:14.105Z,2.58
2022-11-17T21:38:40.682Z,2.22
2022-11-17T21:41:13.533Z,2.25
2022-11-17T21:43:42.154Z,1.90
2022-11-17T21:46:12.154Z,2.28
2022-11-17T21:48:38.988Z,2.25
2022-11-17T21:51:07.543Z,2.28
2022-11-17T21:53:34.202Z,2.20
2022-11-17T21:56:03.717Z,2.08
2022-11-17T21:58:30.516Z,2.60
2022-11-17T22:00:57.857Z,2.25
2022-11-17T22:03:24.860Z,2.15
2022-11-17T22:05:52.422Z,2.30
2022-11-17T22:08:19.597Z,2.20
2022-11-17T22:10:46.144Z,2.10
2022-11-17T22:13:12.724Z,2.15
2022-11-17T22:15:39.453Z,2.55
2022-11-17T22:18:06.123Z,2.33
2022-11-17T22:20:32.894Z,2.03
2022-11-17T22:22:59.734Z,2.47
2022-11-17T22:25:44.612Z,2.78
2022-11-17T22:28:12.080Z,2.60
2022-11-17T22:30:39.338Z,2.83
2022-11-17T22:33:05.919Z,2.70
2022-11-17T22:35:32.668Z,3.13
2022-11-17T22:37:59.295Z,2.95
2022-11-17T22:40:25.938Z,2.70
2022-11-17T22:42:52.904Z,2.60
2022-11-17T22:45:19.577Z,3.40
2022-11-17T22:47:46.461Z,3.15
2022-11-17T22:50:13.161Z,3.03
2022-11-17T22:52:39.931Z,3.10
2022-11-17T22:55:06.902Z,3.25
2022-11-17T22:57:33.563Z,2.85
2022-11-17T23:00:00.440Z,2.75
2022-11-17T23:02:27.068Z,2.83
2022-11-17T23:04:53.651Z,2.80
2022-11-17T23:07:20.574Z,2.78
2022-11-17T23:09:47.270Z,2.58
2022-11-17T23:12:14.656Z,2.80
2022-11-17T23:14:42.370Z,2.90
2022-11-17T23:17:08.939Z,2.67
2022-11-17T23:19:35.686Z,2.63
2022-11-17T23:22:02.398Z,2.80
2022-11-17T23:24:28.937Z,2.28
2022-11-17T23:26:55.690Z,2.55
2022-11-17T23:29:22.286Z,2.50
2022-11-17T23:31:49.293Z,3.33
2022-11-17T23:34:16.091Z,2.58
2022-11-17T23:36:42.664Z,2.90
2022-11-17T23:39:09.390Z,2.60
2022-11-17T23:41:36.072Z,2.60
2022-11-17T23:44:02.727Z,2.80
2022-11-17T23:46:29.310Z,2.75
2022-11-17T23:48:57.255Z,2.17
2022-11-17T23:51:25.937Z,2.65
2022-11-17T23:53:53.615Z,2.33
2022-11-17T23:56:20.814Z,2.55
2022-11-17T23:58:50.660Z,2.60
